Terminal Aerodrome Forecast
Issued by NWS

Home | Current Version | Previous Version | Text Only | Print | Product List | Glossary On
Versions: 1 2 3 4 5 6 7 8 9 10 11 12
000
FTUS41 KAKQ 312300
TAFPHF
TAF
KPHF 312338Z 0100/0124 17005KT P6SM BKN050 OVC150
     FM011200 07006KT P6SM OVC100
     FM011900 09010G15KT P6SM OVC090=

USA.gov is the U.S. government's official web portal to all federal, state and local government web resources and services.